Tropical Cyclones
[Index]
Main Index Home Page Stock Weather Photos Extreme Storms Discussion Storm News and Storm Chasing Reports Tropical Cyclones / Hurricanes / Typhoons Weather Data and Links Wild Fires / Bushfires Weather Observation Techniques Weather Picture Catalogue Tornado Pictures and Reports Stock Video Footage and DVDs for sale
Season 1969-1970 Tropical Cyclone DAWN Track Map
Season 1969-1970 Summaries: [BoM-AU] [JTWC-AU] [JTWC-SIO] [JTWC-SPAC] [JTWC-SH]
<<- Previous TC | BoM 1969-1970 Season | Next TC ->>

click for intensity scale information  Lat/long Grid: Show Hide

 Date Labels: Show Hide

Bureau of Meteorology Tropical Cyclone Data

Name: DAWN
Number: 455 / 196970_05

10 Feb 1970 05:00 UTC to 19 Feb 1970 05:00 UTC

    date/time    lat    long    hPa   cat  kts
1970-02-10 05   13.9   138.5   1000                     
1970-02-10 11   13.1   139.5    999                     
1970-02-10 23   12.0   141.8    994    1                
1970-02-11 05   11.7   143.0    994    1                
1970-02-11 08   11.5   143.6    994    1                
1970-02-11 11   11.4   144.2    992    1                
1970-02-11 17   11.5   144.6    990    1                
1970-02-11 23   12.0   146.7    992    1                
1970-02-12 11   13.0   147.9    992    1                
1970-02-12 23   14.0   149.1    994    1                
1970-02-13 05   14.2   149.9    995    1                
1970-02-13 11   14.2   151.1    995    1                
1970-02-13 23   13.6   153.4    995    1                
1970-02-14 05   13.5   154.4    995    1                
1970-02-14 11   13.5   155.4    995    1                
1970-02-14 23   13.6   157.4    995    1                
1970-02-15 08   13.9   158.9    995    1                
1970-02-15 11   14.1   159.2    995    1                
1970-02-15 23   15.0   160.6    995    1                
1970-02-16 11   16.0   161.6    995    1                
1970-02-16 14   16.4   161.8    995    1                
1970-02-16 23   17.7   162.0    995    1                
1970-02-17 11   19.5   161.8    995    1                
1970-02-17 23   21.2   161.2    995    1                
1970-02-18 11   22.9   160.0    996                     
1970-02-18 23   24.3   158.8    998                     
1970-02-19 05   25.0   158.0   1004                     
Winds are 10-min average.

Tropical cyclone tracks developed by Michael Bath using data from the Bureau of Meteorology and Google Maps.


[Australian Severe Weather index] [Copyright Notice] [Email Contacts] [Search This Site] [Privacy Policy]
Document: tropical_cyclone_dawn.htm Updated: 30 May 2013